sensor_id;sensor_type;location;lat;lon;timestamp;pressure;altitude;pressure_sealevel;temperature;humidity
8253;BME280;61313;48.396;10.008;2023-04-25T00:00:50;95593.22;;;10.28;53.57
8253;BME280;61313;48.396;10.008;2023-04-25T00:03:17;95590.00;;;10.23;53.61
8253;BME280;61313;48.396;10.008;2023-04-25T00:05:43;95585.94;;;10.33;53.43
8253;BME280;61313;48.396;10.008;2023-04-25T00:08:09;95592.28;;;10.29;53.71
8253;BME280;61313;48.396;10.008;2023-04-25T00:10:34;95588.47;;;10.19;54.12
8253;BME280;61313;48.396;10.008;2023-04-25T00:13:00;95585.34;;;10.28;53.35
8253;BME280;61313;48.396;10.008;2023-04-25T00:15:28;95586.19;;;10.29;53.43
8253;BME280;61313;48.396;10.008;2023-04-25T00:17:56;95581.47;;;10.35;53.28
8253;BME280;61313;48.396;10.008;2023-04-25T00:20:22;95587.03;;;10.45;52.91
8253;BME280;61313;48.396;10.008;2023-04-25T00:22:49;95576.28;;;10.50;52.55
8253;BME280;61313;48.396;10.008;2023-04-25T00:25:14;95578.31;;;10.45;53.37
8253;BME280;61313;48.396;10.008;2023-04-25T00:27:40;95568.94;;;10.41;53.03
8253;BME280;61313;48.396;10.008;2023-04-25T00:30:07;95552.63;;;10.35;52.88
8253;BME280;61313;48.396;10.008;2023-04-25T00:32:33;95556.06;;;10.36;53.53
8253;BME280;61313;48.396;10.008;2023-04-25T00:34:58;95569.25;;;10.34;53.52
8253;BME280;61313;48.396;10.008;2023-04-25T00:37:24;95577.50;;;10.28;53.08
8253;BME280;61313;48.396;10.008;2023-04-25T00:39:50;95576.28;;;10.34;53.62
8253;BME280;61313;48.396;10.008;2023-04-25T00:42:16;95579.94;;;10.31;53.34
8253;BME280;61313;48.396;10.008;2023-04-25T00:44:42;95569.78;;;10.25;53.45
8253;BME280;61313;48.396;10.008;2023-04-25T00:47:11;95575.63;;;10.30;53.93
8253;BME280;61313;48.396;10.008;2023-04-25T00:49:36;95562.75;;;10.26;53.93
8253;BME280;61313;48.396;10.008;2023-04-25T00:52:02;95556.41;;;10.14;54.55
8253;BME280;61313;48.396;10.008;2023-04-25T00:54:27;95552.94;;;10.13;54.39
8253;BME280;61313;48.396;10.008;2023-04-25T00:56:53;95557.56;;;10.24;54.15
8253;BME280;61313;48.396;10.008;2023-04-25T00:59:19;95550.97;;;10.01;55.17
8253;BME280;61313;48.396;10.008;2023-04-25T01:01:45;95539.84;;;10.13;54.58
8253;BME280;61313;48.396;10.008;2023-04-25T01:04:11;95546.59;;;10.17;54.23
8253;BME280;61313;48.396;10.008;2023-04-25T01:06:36;95542.59;;;10.26;54.46
8253;BME280;61313;48.396;10.008;2023-04-25T01:09:02;95544.97;;;10.15;54.46
8253;BME280;61313;48.396;10.008;2023-04-25T01:11:29;95554.66;;;10.30;54.03
8253;BME280;61313;48.396;10.008;2023-04-25T01:13:55;95543.56;;;10.25;54.01
8253;BME280;61313;48.396;10.008;2023-04-25T01:16:20;95543.16;;;10.33;53.84
8253;BME280;61313;48.396;10.008;2023-04-25T01:18:49;95537.22;;;10.29;54.18
8253;BME280;61313;48.396;10.008;2023-04-25T01:21:16;95542.28;;;10.16;53.86
8253;BME280;61313;48.396;10.008;2023-04-25T01:23:42;95536.41;;;10.27;54.06
8253;BME280;61313;48.396;10.008;2023-04-25T01:26:11;95537.53;;;10.23;53.99
8253;BME280;61313;48.396;10.008;2023-04-25T01:28:38;95544.72;;;10.20;54.21
8253;BME280;61313;48.396;10.008;2023-04-25T01:31:06;95545.94;;;10.14;54.45
8253;BME280;61313;48.396;10.008;2023-04-25T01:33:32;95537.81;;;10.03;54.77
8253;BME280;61313;48.396;10.008;2023-04-25T01:35:58;95544.31;;;10.11;54.45
8253;BME280;61313;48.396;10.008;2023-04-25T01:38:23;95544.00;;;10.02;55.37
8253;BME280;61313;48.396;10.008;2023-04-25T01:40:50;95537.22;;;9.98;55.24
8253;BME280;61313;48.396;10.008;2023-04-25T01:43:16;95535.25;;;10.01;54.94
8253;BME280;61313;48.396;10.008;2023-04-25T01:45:42;95528.25;;;10.02;54.76
8253;BME280;61313;48.396;10.008;2023-04-25T01:48:12;95542.78;;;9.91;54.94
8253;BME280;61313;48.396;10.008;2023-04-25T01:50:39;95535.88;;;9.90;55.27
8253;BME280;61313;48.396;10.008;2023-04-25T01:53:05;95535.88;;;9.90;55.22
8253;BME280;61313;48.396;10.008;2023-04-25T01:55:31;95536.28;;;9.67;55.79
8253;BME280;61313;48.396;10.008;2023-04-25T01:57:56;95537.19;;;9.66;55.75
8253;BME280;61313;48.396;10.008;2023-04-25T02:00:22;95533.16;;;9.92;55.39
8253;BME280;61313;48.396;10.008;2023-04-25T02:02:48;95521.91;;;9.74;55.39
8253;BME280;61313;48.396;10.008;2023-04-25T02:05:16;95533.31;;;9.73;55.83
8253;BME280;61313;48.396;10.008;2023-04-25T02:07:41;95523.59;;;9.75;56.09
8253;BME280;61313;48.396;10.008;2023-04-25T02:10:07;95522.25;;;10.00;55.09
8253;BME280;61313;48.396;10.008;2023-04-25T02:12:33;95513.72;;;9.96;55.75
8253;BME280;61313;48.396;10.008;2023-04-25T02:14:58;95496.19;;;10.12;55.48
8253;BME280;61313;48.396;10.008;2023-04-25T02:17:24;95480.16;;;9.87;55.44
8253;BME280;61313;48.396;10.008;2023-04-25T02:19:49;95480.06;;;9.57;56.78
8253;BME280;61313;48.396;10.008;2023-04-25T02:22:15;95489.13;;;9.83;55.20
8253;BME280;61313;48.396;10.008;2023-04-25T02:24:41;95503.91;;;10.00;54.64
8253;BME280;61313;48.396;10.008;2023-04-25T02:27:06;95525.78;;;9.99;55.44
8253;BME280;61313;48.396;10.008;2023-04-25T02:29:32;95535.44;;;9.98;54.98
8253;BME280;61313;48.396;10.008;2023-04-25T02:31:58;95541.00;;;9.92;55.69
8253;BME280;61313;48.396;10.008;2023-04-25T02:34:23;95539.66;;;10.01;55.69
8253;BME280;61313;48.396;10.008;2023-04-25T02:36:49;95535.03;;;9.90;55.81
8253;BME280;61313;48.396;10.008;2023-04-25T02:39:16;95536.19;;;9.84;56.14
8253;BME280;61313;48.396;10.008;2023-04-25T02:41:42;95536.97;;;9.86;56.23
8253;BME280;61313;48.396;10.008;2023-04-25T02:44:07;95531.22;;;9.64;57.42
8253;BME280;61313;48.396;10.008;2023-04-25T02:46:33;95522.69;;;9.76;57.29
8253;BME280;61313;48.396;10.008;2023-04-25T02:49:00;95529.16;;;9.85;57.10
8253;BME280;61313;48.396;10.008;2023-04-25T02:51:26;95523.63;;;9.42;59.07
8253;BME280;61313;48.396;10.008;2023-04-25T02:53:51;95512.31;;;9.41;58.94
8253;BME280;61313;48.396;10.008;2023-04-25T02:56:16;95514.13;;;9.23;59.32
8253;BME280;61313;48.396;10.008;2023-04-25T02:58:42;95514.09;;;9.57;58.33
8253;BME280;61313;48.396;10.008;2023-04-25T03:01:07;95514.56;;;9.81;57.76
8253;BME280;61313;48.396;10.008;2023-04-25T03:03:33;95517.97;;;9.83;57.35
8253;BME280;61313;48.396;10.008;2023-04-25T03:05:58;95516.06;;;9.85;57.57
8253;BME280;61313;48.396;10.008;2023-04-25T03:08:23;95519.97;;;9.93;57.48
8253;BME280;61313;48.396;10.008;2023-04-25T03:10:50;95512.72;;;9.83;57.85
8253;BME280;61313;48.396;10.008;2023-04-25T03:13:17;95512.19;;;9.76;58.54
8253;BME280;61313;48.396;10.008;2023-04-25T03:15:43;95510.09;;;9.83;58.26
8253;BME280;61313;48.396;10.008;2023-04-25T03:18:08;95510.00;;;9.84;58.24
8253;BME280;61313;48.396;10.008;2023-04-25T03:20:34;95511.34;;;9.91;58.16
8253;BME280;61313;48.396;10.008;2023-04-25T03:22:59;95508.63;;;9.77;58.47
8253;BME280;61313;48.396;10.008;2023-04-25T03:25:25;95513.88;;;9.77;58.33
8253;BME280;61313;48.396;10.008;2023-04-25T03:27:50;95512.03;;;9.79;58.77
8253;BME280;61313;48.396;10.008;2023-04-25T03:30:16;95517.00;;;9.84;58.39
8253;BME280;61313;48.396;10.008;2023-04-25T03:32:41;95508.63;;;9.77;58.67
8253;BME280;61313;48.396;10.008;2023-04-25T03:35:07;95508.63;;;9.77;59.31
8253;BME280;61313;48.396;10.008;2023-04-25T03:37:32;95507.13;;;9.57;60.30
8253;BME280;61313;48.396;10.008;2023-04-25T03:39:58;95500.78;;;9.77;60.22
8253;BME280;61313;48.396;10.008;2023-04-25T03:42:23;95500.63;;;9.64;61.27
8253;BME280;61313;48.396;10.008;2023-04-25T03:44:49;95497.25;;;9.78;60.90
8253;BME280;61313;48.396;10.008;2023-04-25T03:47:15;95500.38;;;9.69;60.35
8253;BME280;61313;48.396;10.008;2023-04-25T03:49:41;95504.34;;;9.76;60.57
8253;BME280;61313;48.396;10.008;2023-04-25T03:52:07;95502.22;;;9.83;59.77
8253;BME280;61313;48.396;10.008;2023-04-25T03:54:32;95500.78;;;9.77;59.50
8253;BME280;61313;48.396;10.008;2023-04-25T03:56:58;95508.88;;;9.72;60.26
8253;BME280;61313;48.396;10.008;2023-04-25T03:59:23;95506.00;;;9.61;61.61
8253;BME280;61313;48.396;10.008;2023-04-25T04:01:50;95507.47;;;9.67;61.51
8253;BME280;61313;48.396;10.008;2023-04-25T04:04:15;95503.31;;;9.63;60.91
8253;BME280;61313;48.396;10.008;2023-04-25T04:06:41;95496.41;;;9.62;61.19
8253;BME280;61313;48.396;10.008;2023-04-25T04:09:07;95494.53;;;9.64;60.56
8253;BME280;61313;48.396;10.008;2023-04-25T04:11:36;95495.97;;;9.69;60.05
8253;BME280;61313;48.396;10.008;2023-04-25T04:14:04;95505.16;;;9.61;60.46
8253;BME280;61313;48.396;10.008;2023-04-25T04:16:30;95498.06;;;9.63;60.32
8253;BME280;61313;48.396;10.008;2023-04-25T04:18:56;95499.94;;;9.61;59.96
8253;BME280;61313;48.396;10.008;2023-04-25T04:21:21;95489.63;;;9.73;59.72
8253;BME280;61313;48.396;10.008;2023-04-25T04:23:46;95498.25;;;9.60;60.06
8253;BME280;61313;48.396;10.008;2023-04-25T04:26:13;95498.16;;;9.61;60.15
8253;BME280;61313;48.396;10.008;2023-04-25T04:28:40;95501.53;;;9.63;60.06
8253;BME280;61313;48.396;10.008;2023-04-25T04:31:05;95499.78;;;9.64;60.42
8253;BME280;61313;48.396;10.008;2023-04-25T04:33:32;95508.31;;;9.67;60.16
8253;BME280;61313;48.396;10.008;2023-04-25T04:35:58;95505.94;;;9.63;59.97
8253;BME280;61313;48.396;10.008;2023-04-25T04:38:24;95512.13;;;9.62;60.02
8253;BME280;61313;48.396;10.008;2023-04-25T04:40:50;95503.50;;;9.60;60.08
8253;BME280;61313;48.396;10.008;2023-04-25T04:43:17;95506.44;;;9.53;60.59
8253;BME280;61313;48.396;10.008;2023-04-25T04:45:43;95509.50;;;9.62;59.86
8253;BME280;61313;48.396;10.008;2023-04-25T04:48:09;95516.47;;;9.61;60.25
8253;BME280;61313;48.396;10.008;2023-04-25T04:50:37;95519.97;;;9.62;59.64
8253;BME280;61313;48.396;10.008;2023-04-25T04:53:03;95516.47;;;9.61;60.29
8253;BME280;61313;48.396;10.008;2023-04-25T04:55:29;95519.09;;;9.61;60.15
8253;BME280;61313;48.396;10.008;2023-04-25T04:57:54;95524.50;;;9.58;60.30
8253;BME280;61313;48.396;10.008;2023-04-25T05:00:20;95529.50;;;9.63;60.54
8253;BME280;61313;48.396;10.008;2023-04-25T05:02:47;95524.25;;;9.63;60.77
8253;BME280;61313;48.396;10.008;2023-04-25T05:05:12;95525.53;;;9.56;61.00
8253;BME280;61313;48.396;10.008;2023-04-25T05:07:37;95529.94;;;9.55;60.66
8253;BME280;61313;48.396;10.008;2023-04-25T05:10:03;95523.09;;;9.52;61.30
8253;BME280;61313;48.396;10.008;2023-04-25T05:12:29;95525.78;;;9.51;61.85
8253;BME280;61313;48.396;10.008;2023-04-25T05:14:55;95524.16;;;9.48;62.32
8253;BME280;61313;48.396;10.008;2023-04-25T05:17:20;95518.69;;;9.53;62.25
8253;BME280;61313;48.396;10.008;2023-04-25T05:19:46;95524.09;;;9.50;62.58
8253;BME280;61313;48.396;10.008;2023-04-25T05:22:11;95524.94;;;9.50;62.39
8253;BME280;61313;48.396;10.008;2023-04-25T05:24:37;95519.94;;;9.46;63.32
8253;BME280;61313;48.396;10.008;2023-04-25T05:27:02;95525.34;;;9.59;62.04
8253;BME280;61313;48.396;10.008;2023-04-25T05:29:28;95515.81;;;9.58;62.74
8253;BME280;61313;48.396;10.008;2023-04-25T05:31:53;95516.91;;;9.53;62.49
8253;BME280;61313;48.396;10.008;2023-04-25T05:34:19;95516.03;;;9.21;64.08
8253;BME280;61313;48.396;10.008;2023-04-25T05:36:45;95514.63;;;9.47;63.10
8253;BME280;61313;48.396;10.008;2023-04-25T05:39:14;95515.06;;;9.56;62.40
8253;BME280;61313;48.396;10.008;2023-04-25T05:41:39;95522.72;;;9.59;62.56
8253;BME280;61313;48.396;10.008;2023-04-25T05:44:05;95526.91;;;9.79;62.18
8253;BME280;61313;48.396;10.008;2023-04-25T05:46:30;95534.50;;;9.83;61.26
8253;BME280;61313;48.396;10.008;2023-04-25T05:48:56;95530.88;;;9.70;61.61
8253;BME280;61313;48.396;10.008;2023-04-25T05:51:21;95533.56;;;9.84;61.37
8253;BME280;61313;48.396;10.008;2023-04-25T05:53:47;95527.41;;;9.85;61.44
8253;BME280;61313;48.396;10.008;2023-04-25T05:56:12;95541.38;;;9.86;60.91
8253;BME280;61313;48.396;10.008;2023-04-25T05:58:38;95533.25;;;9.90;61.34
8253;BME280;61313;48.396;10.008;2023-04-25T06:01:03;95534.66;;;9.96;60.49
8253;BME280;61313;48.396;10.008;2023-04-25T06:03:30;95540.84;;;9.95;60.51
8253;BME280;61313;48.396;10.008;2023-04-25T06:05:55;95532.75;;;10.00;60.92
8253;BME280;61313;48.396;10.008;2023-04-25T06:08:20;95530.34;;;10.11;60.21
8253;BME280;61313;48.396;10.008;2023-04-25T06:10:46;95534.50;;;10.15;59.48
8253;BME280;61313;48.396;10.008;2023-04-25T06:13:11;95532.03;;;10.28;59.28
8253;BME280;61313;48.396;10.008;2023-04-25T06:15:37;95522.59;;;10.86;72.18
8253;BME280;61313;48.396;10.008;2023-04-25T06:18:02;95519.50;;;12.35;70.07
8253;BME280;61313;48.396;10.008;2023-04-25T06:20:28;95511.03;;;13.23;69.07
8253;BME280;61313;48.396;10.008;2023-04-25T06:22:54;95519.44;;;12.49;53.78
8253;BME280;61313;48.396;10.008;2023-04-25T06:25:20;95514.81;;;12.40;53.28
8253;BME280;61313;48.396;10.008;2023-04-25T06:27:45;95514.06;;;12.38;52.29
8253;BME280;61313;48.396;10.008;2023-04-25T06:30:11;95519.63;;;12.34;53.12
8253;BME280;61313;48.396;10.008;2023-04-25T06:32:38;95505.75;;;12.44;51.81
8253;BME280;61313;48.396;10.008;2023-04-25T06:35:03;95505.97;;;12.41;52.19
8253;BME280;61313;48.396;10.008;2023-04-25T06:37:29;95497.44;;;13.03;50.87
8253;BME280;61313;48.396;10.008;2023-04-25T06:39:55;95498.19;;;13.44;49.18
8253;BME280;61313;48.396;10.008;2023-04-25T06:42:20;95486.50;;;13.61;48.71
8253;BME280;61313;48.396;10.008;2023-04-25T06:44:46;95487.38;;;13.85;47.58
8253;BME280;61313;48.396;10.008;2023-04-25T06:47:11;95485.16;;;13.92;48.05
8253;BME280;61313;48.396;10.008;2023-04-25T06:49:36;95487.91;;;14.38;46.35
8253;BME280;61313;48.396;10.008;2023-04-25T06:52:02;95487.84;;;14.75;45.01
8253;BME280;61313;48.396;10.008;2023-04-25T06:54:28;95488.88;;;14.97;44.19
8253;BME280;61313;48.396;10.008;2023-04-25T06:56:55;95489.50;;;15.12;44.11
8253;BME280;61313;48.396;10.008;2023-04-25T06:59:21;95489.53;;;15.23;43.75
8253;BME280;61313;48.396;10.008;2023-04-25T07:01:47;95483.94;;;14.92;43.66
8253;BME280;61313;48.396;10.008;2023-04-25T07:04:12;95487.50;;;14.80;44.07
8253;BME280;61313;48.396;10.008;2023-04-25T07:06:38;95477.41;;;15.54;43.23
8253;BME280;61313;48.396;10.008;2023-04-25T07:09:08;95485.81;;;15.37;43.26
8253;BME280;61313;48.396;10.008;2023-04-25T07:11:35;95484.38;;;14.75;44.00
8253;BME280;61313;48.396;10.008;2023-04-25T07:14:00;95485.56;;;14.23;45.41
8253;BME280;61313;48.396;10.008;2023-04-25T07:16:26;95484.44;;;13.77;46.66
8253;BME280;61313;48.396;10.008;2023-04-25T07:18:51;95488.63;;;13.43;47.85
8253;BME280;61313;48.396;10.008;2023-04-25T07:21:17;95488.19;;;13.23;48.65
8253;BME280;61313;48.396;10.008;2023-04-25T07:23:42;95491.44;;;13.14;48.26
8253;BME280;61313;48.396;10.008;2023-04-25T07:26:07;95484.88;;;12.94;49.05
8253;BME280;61313;48.396;10.008;2023-04-25T07:28:33;95488.56;;;12.91;48.44
8253;BME280;61313;48.396;10.008;2023-04-25T07:30:58;95491.00;;;12.82;49.77
8253;BME280;61313;48.396;10.008;2023-04-25T07:33:24;95496.56;;;12.77;49.10
8253;BME280;61313;48.396;10.008;2023-04-25T07:35:49;95490.94;;;12.56;49.44
8253;BME280;61313;48.396;10.008;2023-04-25T07:38:15;95489.19;;;12.69;49.34
8253;BME280;61313;48.396;10.008;2023-04-25T07:40:40;95489.59;;;12.63;49.23
8253;BME280;61313;48.396;10.008;2023-04-25T07:43:06;95495.81;;;12.75;50.31
8253;BME280;61313;48.396;10.008;2023-04-25T07:45:31;95486.41;;;12.58;50.18
8253;BME280;61313;48.396;10.008;2023-04-25T07:47:57;95497.16;;;12.55;50.59
8253;BME280;61313;48.396;10.008;2023-04-25T07:50:22;95503.66;;;12.49;50.65
8253;BME280;61313;48.396;10.008;2023-04-25T07:52:48;95493.81;;;12.66;51.48
8253;BME280;61313;48.396;10.008;2023-04-25T07:55:13;95505.19;;;12.66;51.37
8253;BME280;61313;48.396;10.008;2023-04-25T07:57:39;95510.34;;;12.68;50.24
8253;BME280;61313;48.396;10.008;2023-04-25T08:00:07;95502.56;;;12.66;50.03
8253;BME280;61313;48.396;10.008;2023-04-25T08:02:37;95504.00;;;12.58;49.93
8253;BME280;61313;48.396;10.008;2023-04-25T08:07:37;95501.59;;;12.55;49.79
8253;BME280;61313;48.396;10.008;2023-04-25T08:10:03;95510.41;;;12.54;49.49
8253;BME280;61313;48.396;10.008;2023-04-25T08:12:28;95506.63;;;12.58;50.22
8253;BME280;61313;48.396;10.008;2023-04-25T08:14:54;95503.41;;;12.67;50.22
8253;BME280;61313;48.396;10.008;2023-04-25T08:17:19;95505.19;;;12.66;49.58
8253;BME280;61313;48.396;10.008;2023-04-25T08:19:45;95500.34;;;12.73;49.14
8253;BME280;61313;48.396;10.008;2023-04-25T08:22:10;95509.47;;;12.55;46.98
8253;BME280;61313;48.396;10.008;2023-04-25T08:24:36;95507.00;;;12.79;47.25
8253;BME280;61313;48.396;10.008;2023-04-25T08:27:01;95507.22;;;12.76;47.38
8253;BME280;61313;48.396;10.008;2023-04-25T08:29:27;95519.13;;;12.94;48.51
8253;BME280;61313;48.396;10.008;2023-04-25T08:31:53;95520.19;;;12.91;47.90
8253;BME280;61313;48.396;10.008;2023-04-25T08:34:19;95526.28;;;12.92;48.02
8253;BME280;61313;48.396;10.008;2023-04-25T08:36:45;95520.78;;;12.69;47.72
8253;BME280;61313;48.396;10.008;2023-04-25T08:39:10;95520.50;;;12.47;48.58
8253;BME280;61313;48.396;10.008;2023-04-25T08:41:40;95527.41;;;12.35;49.74
8253;BME280;61313;48.396;10.008;2023-04-25T08:44:09;95525.97;;;12.44;49.57
8253;BME280;61313;48.396;10.008;2023-04-25T08:46:38;95534.31;;;12.50;50.38
8253;BME280;61313;48.396;10.008;2023-04-25T08:49:04;95530.91;;;12.76;49.35
8253;BME280;61313;48.396;10.008;2023-04-25T08:51:33;95541.00;;;12.42;50.32
8253;BME280;61313;48.396;10.008;2023-04-25T08:54:11;95536.44;;;12.58;49.53
8253;BME280;61313;48.396;10.008;2023-04-25T08:56:41;95532.28;;;12.41;50.38
8253;BME280;61313;48.396;10.008;2023-04-25T08:59:09;95546.56;;;12.37;50.52
8253;BME280;61313;48.396;10.008;2023-04-25T09:01:35;95534.06;;;12.41;50.78
8253;BME280;61313;48.396;10.008;2023-04-25T09:04:01;95542.50;;;12.46;49.48
8253;BME280;61313;48.396;10.008;2023-04-25T09:06:28;95540.91;;;12.43;49.82
8253;BME280;61313;48.396;10.008;2023-04-25T09:08:54;95548.72;;;12.45;49.59
8253;BME280;61313;48.396;10.008;2023-04-25T09:11:19;95542.94;;;12.53;49.94
8253;BME280;61313;48.396;10.008;2023-04-25T09:13:45;95548.00;;;12.56;49.67
8253;BME280;61313;48.396;10.008;2023-04-25T09:16:10;95554.47;;;12.77;50.48
8253;BME280;61313;48.396;10.008;2023-04-25T09:18:37;95550.28;;;12.75;50.17
8253;BME280;61313;48.396;10.008;2023-04-25T09:21:10;95546.72;;;12.76;49.84
8253;BME280;61313;48.396;10.008;2023-04-25T09:23:47;95545.84;;;12.75;49.88
8253;BME280;61313;48.396;10.008;2023-04-25T09:26:17;95549.00;;;12.80;48.80
8253;BME280;61313;48.396;10.008;2023-04-25T09:28:43;95555.69;;;12.86;48.85
8253;BME280;61313;48.396;10.008;2023-04-25T09:31:12;95559.97;;;12.87;48.42
8253;BME280;61313;48.396;10.008;2023-04-25T09:33:46;95553.47;;;12.92;47.58
8253;BME280;61313;48.396;10.008;2023-04-25T09:36:11;95549.28;;;13.03;47.73
8253;BME280;61313;48.396;10.008;2023-04-25T09:38:44;95551.16;;;13.01;47.19
8253;BME280;61313;48.396;10.008;2023-04-25T09:41:10;95562.13;;;13.07;47.21
8253;BME280;61313;48.396;10.008;2023-04-25T09:43:37;95577.72;;;12.98;48.88
8253;BME280;61313;48.396;10.008;2023-04-25T09:46:08;95586.69;;;12.68;51.92
8253;BME280;61313;48.396;10.008;2023-04-25T09:48:34;95601.13;;;12.48;52.93
8253;BME280;61313;48.396;10.008;2023-04-25T09:51:10;95611.31;;;12.25;54.35
8253;BME280;61313;48.396;10.008;2023-04-25T09:53:38;95626.88;;;12.01;56.78
8253;BME280;61313;48.396;10.008;2023-04-25T09:56:05;95630.31;;;11.73;57.48
8253;BME280;61313;48.396;10.008;2023-04-25T09:58:32;95643.91;;;11.65;57.75
8253;BME280;61313;48.396;10.008;2023-04-25T10:01:00;95643.06;;;11.51;59.78
8253;BME280;61313;48.396;10.008;2023-04-25T10:03:26;95648.72;;;11.29;61.20
8253;BME280;61313;48.396;10.008;2023-04-25T10:05:52;95655.66;;;11.15;60.17
8253;BME280;61313;48.396;10.008;2023-04-25T10:08:19;95654.19;;;10.79;60.95
8253;BME280;61313;48.396;10.008;2023-04-25T10:10:46;95649.59;;;10.83;62.21
8253;BME280;61313;48.396;10.008;2023-04-25T10:13:13;95650.66;;;10.65;63.33
8253;BME280;61313;48.396;10.008;2023-04-25T10:15:40;95655.38;;;10.74;62.25
8253;BME280;61313;48.396;10.008;2023-04-25T10:18:07;95648.19;;;10.77;62.79
8253;BME280;61313;48.396;10.008;2023-04-25T10:20:32;95658.00;;;10.74;62.38
8253;BME280;61313;48.396;10.008;2023-04-25T10:23:08;95654.09;;;10.81;62.46
8253;BME280;61313;48.396;10.008;2023-04-25T10:25:36;95656.47;;;10.86;63.39
8253;BME280;61313;48.396;10.008;2023-04-25T10:28:03;95656.19;;;10.90;62.17
8253;BME280;61313;48.396;10.008;2023-04-25T10:30:29;95662.66;;;10.69;61.87
8253;BME280;61313;48.396;10.008;2023-04-25T10:32:55;95654.19;;;10.79;63.52
8253;BME280;61313;48.396;10.008;2023-04-25T10:35:25;95659.03;;;10.71;63.93
8253;BME280;61313;48.396;10.008;2023-04-25T10:38:13;95663.69;;;10.82;61.95
8253;BME280;61313;48.396;10.008;2023-04-25T10:40:39;95669.13;;;10.63;60.05
8253;BME280;61313;48.396;10.008;2023-04-25T10:43:33;95671.97;;;10.74;60.75
8253;BME280;61313;48.396;10.008;2023-04-25T10:46:02;95673.84;;;10.56;61.69
8253;BME280;61313;48.396;10.008;2023-04-25T10:48:37;95668.88;;;10.68;61.78
8253;BME280;61313;48.396;10.008;2023-04-25T10:51:09;95677.97;;;10.76;63.35
8253;BME280;61313;48.396;10.008;2023-04-25T10:53:35;95682.13;;;10.80;61.48
8253;BME280;61313;48.396;10.008;2023-04-25T10:56:09;95688.53;;;10.91;61.86
8253;BME280;61313;48.396;10.008;2023-04-25T10:58:34;95682.72;;;10.86;61.45
8253;BME280;61313;48.396;10.008;2023-04-25T11:01:01;95690.59;;;10.86;62.14
8253;BME280;61313;48.396;10.008;2023-04-25T11:03:26;95689.81;;;10.99;61.98
8253;BME280;61313;48.396;10.008;2023-04-25T11:05:52;95688.38;;;10.94;61.09
8253;BME280;61313;48.396;10.008;2023-04-25T11:08:29;95684.31;;;10.88;58.79
8253;BME280;61313;48.396;10.008;2023-04-25T11:11:00;95683.78;;;10.97;58.70
8253;BME280;61313;48.396;10.008;2023-04-25T11:13:29;95687.94;;;11.01;58.13
8253;BME280;61313;48.396;10.008;2023-04-25T11:15:55;95684.34;;;11.18;57.20
8253;BME280;61313;48.396;10.008;2023-04-25T11:18:20;95686.06;;;11.34;55.88
8253;BME280;61313;48.396;10.008;2023-04-25T11:20:47;95689.44;;;11.36;56.52
8253;BME280;61313;48.396;10.008;2023-04-25T11:23:13;95692.19;;;11.34;54.93
8253;BME280;61313;48.396;10.008;2023-04-25T11:25:40;95694.72;;;11.06;57.30
8253;BME280;61313;48.396;10.008;2023-04-25T11:28:06;95693.75;;;11.22;56.51
8253;BME280;61313;48.396;10.008;2023-04-25T11:30:31;95692.56;;;11.12;56.04
8253;BME280;61313;48.396;10.008;2023-04-25T11:32:57;95697.00;;;10.96;56.58
8253;BME280;61313;48.396;10.008;2023-04-25T11:35:22;95699.97;;;10.58;58.51
8253;BME280;61313;48.396;10.008;2023-04-25T11:37:48;95696.78;;;10.85;60.26
8253;BME280;61313;48.396;10.008;2023-04-25T11:40:15;95715.63;;;10.91;60.83
8253;BME280;61313;48.396;10.008;2023-04-25T11:42:46;95705.63;;;10.98;61.16
8253;BME280;61313;48.396;10.008;2023-04-25T11:45:12;95710.09;;;11.12;60.19
8253;BME280;61313;48.396;10.008;2023-04-25T11:47:38;95715.22;;;10.99;60.78
8253;BME280;61313;48.396;10.008;2023-04-25T11:50:05;95711.84;;;10.65;60.06
8253;BME280;61313;48.396;10.008;2023-04-25T11:52:45;95714.19;;;10.70;60.88
8253;BME280;61313;48.396;10.008;2023-04-25T11:55:15;95720.06;;;10.75;58.61
8253;BME280;61313;48.396;10.008;2023-04-25T11:57:42;95722.78;;;10.73;59.85
8253;BME280;61313;48.396;10.008;2023-04-25T12:00:12;95724.88;;;10.98;61.85
8253;BME280;61313;48.396;10.008;2023-04-25T12:02:46;95725.13;;;10.94;62.03
8253;BME280;61313;48.396;10.008;2023-04-25T12:05:13;95731.28;;;11.09;60.86
8253;BME280;61313;48.396;10.008;2023-04-25T12:07:39;95725.06;;;11.26;61.05
8253;BME280;61313;48.396;10.008;2023-04-25T12:12:33;95736.59;;;11.23;60.59
8253;BME280;61313;48.396;10.008;2023-04-25T12:15:08;95730.84;;;11.16;60.65
8253;BME280;61313;48.396;10.008;2023-04-25T12:17:34;95735.25;;;11.16;60.51
8253;BME280;61313;48.396;10.008;2023-04-25T12:20:15;95736.59;;;11.39;61.44
8253;BME280;61313;48.396;10.008;2023-04-25T12:22:42;95741.31;;;11.48;61.38
8253;BME280;61313;48.396;10.008;2023-04-25T12:25:12;95744.66;;;11.50;61.98
8253;BME280;61313;48.396;10.008;2023-04-25T12:27:38;95743.19;;;11.46;61.94
8253;BME280;61313;48.396;10.008;2023-04-25T12:30:07;95755.38;;;11.31;61.98
8253;BME280;61313;48.396;10.008;2023-04-25T12:32:33;95756.34;;;11.14;61.14
8253;BME280;61313;48.396;10.008;2023-04-25T12:34:58;95764.25;;;10.98;62.46
8253;BME280;61313;48.396;10.008;2023-04-25T12:37:24;95761.72;;;11.13;62.16
8253;BME280;61313;48.396;10.008;2023-04-25T12:39:49;95761.19;;;11.22;61.34
8253;BME280;61313;48.396;10.008;2023-04-25T12:42:15;95764.41;;;11.11;62.15
8253;BME280;61313;48.396;10.008;2023-04-25T12:44:41;95764.34;;;10.97;61.04
8253;BME280;61313;48.396;10.008;2023-04-25T12:47:06;95773.31;;;11.09;60.50
8253;BME280;61313;48.396;10.008;2023-04-25T12:49:32;95774.03;;;11.27;60.80
8253;BME280;61313;48.396;10.008;2023-04-25T12:51:58;95771.41;;;11.27;60.77
8253;BME280;61313;48.396;10.008;2023-04-25T12:54:23;95777.28;;;10.84;62.17
8253;BME280;61313;48.396;10.008;2023-04-25T12:56:49;95777.63;;;11.10;61.12
8253;BME280;61313;48.396;10.008;2023-04-25T12:59:16;95784.06;;;11.04;61.76
8253;BME280;61313;48.396;10.008;2023-04-25T13:01:41;95789.97;;;11.23;61.16
8253;BME280;61313;48.396;10.008;2023-04-25T13:04:07;95787.59;;;11.35;61.13